Time;durP1;ratioP1;P1;durP2;ratioP2;P2;SDS_P1;SDS_P2;PMS_P1;PMS_P2;Temp;Humidity;BMP_temperature;BMP_pressure;BME280_temperature;BME280_humidity;BME280_pressure;Samples;Min_cycle;Max_cycle;Signal;HPM_P1;HPM_P2
2021/06/14 00:02:42;;;;;;;1.53;1.43;;;;;;;20.09;36.82;95881.22;6902952;28;20246;-76
2021/06/14 00:06:03;;;;;;;2.03;1.40;;;;;;;20.08;36.85;95881.41;6921011;28;20223;-76
2021/06/14 00:09:24;;;;;;;3.33;1.60;;;;;;;20.03;36.61;95878.41;6880725;28;20215;-77
2021/06/14 00:12:45;;;;;;;1.83;1.50;;;;;;;19.97;36.76;95873.72;6927272;28;20218;-76
2021/06/14 00:16:09;;;;;;;3.43;1.50;;;;;;;19.93;36.79;95867.00;6908767;28;20212;-75
2021/06/14 00:19:32;;;;;;;2.07;1.50;;;;;;;19.96;36.80;95872.91;6902680;28;20758;-77
2021/06/14 00:22:53;;;;;;;3.37;1.20;;;;;;;19.98;36.85;95868.16;6904251;28;20315;-76
2021/06/14 00:26:15;;;;;;;2.30;1.53;;;;;;;19.97;36.94;95863.78;6898923;28;20219;-76
2021/06/14 00:29:35;;;;;;;4.10;1.70;;;;;;;19.94;37.02;95860.63;6905430;28;20641;-76
2021/06/14 00:32:56;;;;;;;1.90;1.60;;;;;;;19.89;36.85;95860.31;6896647;28;20699;-76
2021/06/14 00:36:17;;;;;;;4.83;1.67;;;;;;;19.81;36.90;95855.81;6899131;28;20234;-76
2021/06/14 00:39:37;;;;;;;3.20;1.40;;;;;;;19.76;37.01;95860.06;6901723;28;20217;-76
2021/06/14 00:42:58;;;;;;;1.73;1.50;;;;;;;19.72;37.08;95858.75;6901660;28;20260;-75
2021/06/14 00:46:21;;;;;;;1.50;1.33;;;;;;;19.66;37.13;95858.44;6899471;28;20292;-76
2021/06/14 00:49:43;;;;;;;2.97;1.80;;;;;;;19.63;37.31;95853.38;6912283;28;20261;-70
2021/06/14 00:53:12;;;;;;;1.67;1.37;;;;;;;19.59;37.22;95853.94;6896527;28;20251;-77
2021/06/14 00:56:33;;;;;;;2.37;1.53;;;;;;;19.58;37.32;95849.53;6906137;28;20225;-75
2021/06/14 00:59:53;;;;;;;4.07;1.50;;;;;;;19.56;37.13;95848.91;6912360;28;20218;-76
2021/06/14 01:03:17;;;;;;;2.67;1.60;;;;;;;19.52;37.42;95842.16;6916425;28;21054;-75
2021/06/14 01:06:37;;;;;;;2.70;1.50;;;;;;;19.45;37.50;95836.66;6908449;28;20218;-75
2021/06/14 01:09:58;;;;;;;2.33;1.50;;;;;;;19.44;37.81;95842.19;6884047;28;20212;-75
2021/06/14 01:13:26;;;;;;;3.43;2.00;;;;;;;19.41;37.79;95840.69;6896791;28;20218;-76
2021/06/14 01:17:01;;;;;;;1.83;1.60;;;;;;;19.43;37.98;95843.19;6901362;28;20213;-75
2021/06/14 01:20:42;;;;;;;2.03;1.40;;;;;;;19.45;38.02;95843.91;6890894;28;20833;-77
2021/06/14 01:24:15;;;;;;;3.17;1.70;;;;;;;19.40;38.02;95843.56;6894149;28;20261;-76
2021/06/14 01:27:38;;;;;;;1.60;1.50;;;;;;;19.38;38.21;95846.41;6924648;28;20230;-76
2021/06/14 01:31:00;;;;;;;2.30;1.50;;;;;;;19.35;38.25;95843.25;6908985;28;20225;-76
2021/06/14 01:34:29;;;;;;;4.00;1.83;;;;;;;19.31;38.40;95841.94;6899030;28;20305;-75
2021/06/14 01:37:55;;;;;;;2.60;1.83;;;;;;;19.24;38.57;95833.69;6910237;28;20557;-75
2021/06/14 01:41:18;;;;;;;2.57;1.40;;;;;;;19.16;38.70;95829.19;6884207;28;20219;-76
2021/06/14 01:44:40;;;;;;;1.77;1.40;;;;;;;19.11;39.00;95825.34;6900556;28;20222;-75
2021/06/14 01:48:02;;;;;;;3.10;1.40;;;;;;;19.10;38.93;95831.75;6899770;28;20301;-75
2021/06/14 01:51:29;;;;;;;2.60;1.43;;;;;;;19.09;38.97;95822.81;6870243;28;20219;-75
2021/06/14 01:54:53;;;;;;;2.03;1.80;;;;;;;19.10;39.00;95826.38;6926857;28;20687;-75
2021/06/14 01:58:18;;;;;;;3.17;1.80;;;;;;;19.10;39.02;95816.44;6924518;28;20682;-75
2021/06/14 02:01:38;;;;;;;2.13;1.53;;;;;;;19.08;39.24;95817.59;6916199;28;20221;-77
2021/06/14 02:05:00;;;;;;;2.30;1.63;;;;;;;19.07;39.28;95811.38;6884328;28;20227;-76
2021/06/14 02:08:23;;;;;;;2.43;1.63;;;;;;;19.05;39.50;95816.13;6888154;28;20211;-76
2021/06/14 02:11:52;;;;;;;3.33;1.63;;;;;;;19.03;39.47;95819.97;6910272;28;20214;-76
2021/06/14 02:15:16;;;;;;;3.70;1.90;;;;;;;18.97;39.47;95807.22;6910606;28;20218;-75
2021/06/14 02:18:36;;;;;;;2.17;1.60;;;;;;;18.92;39.65;95812.28;6894783;28;20274;-75
2021/06/14 02:21:57;;;;;;;1.97;1.40;;;;;;;18.88;39.86;95813.66;6884336;28;20214;-75
2021/06/14 02:25:20;;;;;;;2.03;1.80;;;;;;;18.81;39.92;95806.25;6880885;28;20407;-75
2021/06/14 02:28:42;;;;;;;3.30;1.50;;;;;;;18.76;39.88;95794.38;6893235;28;20226;-75
2021/06/14 02:32:07;;;;;;;3.03;1.60;;;;;;;18.73;40.13;95808.16;6903355;28;20623;-76
2021/06/14 02:35:30;;;;;;;2.13;1.70;;;;;;;18.72;40.15;95811.84;6884747;28;20217;-76
2021/06/14 02:38:51;;;;;;;2.03;1.57;;;;;;;18.74;40.22;95815.22;6898945;28;20296;-77
2021/06/14 02:42:14;;;;;;;2.93;1.80;;;;;;;18.72;40.18;95820.75;6887674;28;20213;-75
2021/06/14 02:45:36;;;;;;;4.20;1.70;;;;;;;18.70;40.17;95821.97;6883396;28;20229;-75
2021/06/14 02:48:57;;;;;;;2.70;1.60;;;;;;;18.67;40.36;95823.13;6896419;28;20225;-75
2021/06/14 02:52:18;;;;;;;4.20;1.77;;;;;;;18.61;40.37;95814.91;6905784;28;20210;-75
2021/06/14 02:56:05;;;;;;;2.13;1.53;;;;;;;18.53;40.51;95820.28;6907057;28;20311;-75
2021/06/14 02:59:27;;;;;;;4.00;1.90;;;;;;;18.46;40.84;95816.59;6910477;28;20228;-77
2021/06/14 03:02:48;;;;;;;4.77;1.83;;;;;;;18.44;40.82;95817.59;6896438;28;20295;-76
2021/06/14 03:06:15;;;;;;;2.23;1.67;;;;;;;18.39;40.80;95822.66;6918326;28;21269;-76
2021/06/14 03:09:36;;;;;;;2.50;1.77;;;;;;;18.37;41.11;95819.28;6889437;28;20235;-76
2021/06/14 03:13:01;;;;;;;3.13;1.83;;;;;;;18.32;41.07;95810.03;6885944;28;20222;-76
2021/06/14 03:16:25;;;;;;;4.33;1.50;;;;;;;18.28;41.22;95806.03;6908216;28;20564;-76
2021/06/14 03:19:46;;;;;;;2.70;1.50;;;;;;;18.27;41.33;95815.94;6901395;28;20239;-75
2021/06/14 03:23:11;;;;;;;2.10;1.73;;;;;;;18.24;41.13;95818.13;6907741;28;20228;-76
2021/06/14 03:26:37;;;;;;;3.70;1.50;;;;;;;18.19;41.50;95825.88;6900374;28;20228;-76
2021/06/14 03:30:00;;;;;;;3.50;1.80;;;;;;;18.15;41.47;95830.75;6917786;28;20237;-75
2021/06/14 03:33:23;;;;;;;7.20;1.97;;;;;;;18.16;41.54;95824.34;6903291;28;20248;-76
2021/06/14 03:36:47;;;;;;;4.50;1.87;;;;;;;18.15;41.72;95814.63;6915278;28;20220;-77
2021/06/14 03:40:12;;;;;;;2.83;1.67;;;;;;;18.16;41.76;95813.59;6913783;28;20308;-76
2021/06/14 03:43:32;;;;;;;3.67;1.60;;;;;;;18.14;41.68;95818.31;6898801;28;20240;-75
2021/06/14 03:46:57;;;;;;;3.37;1.83;;;;;;;18.09;41.81;95811.75;6903116;28;20209;-75
2021/06/14 03:50:18;;;;;;;2.47;1.70;;;;;;;18.02;41.80;95809.72;6916168;28;20228;-75
2021/06/14 03:53:56;;;;;;;3.07;1.80;;;;;;;17.97;42.02;95813.94;6873396;28;20225;-75
2021/06/14 03:57:16;;;;;;;3.70;1.50;;;;;;;17.96;42.29;95817.63;6885634;28;20572;-76
2021/06/14 04:00:37;;;;;;;5.33;1.80;;;;;;;17.97;42.25;95822.84;6915087;28;20688;-75
2021/06/14 04:07:20;;;;;;;3.10;1.67;;;;;;;18.06;42.28;95828.22;6897727;28;20652;-76
2021/06/14 04:10:43;;;;;;;2.57;1.23;;;;;;;18.13;42.71;95822.00;6912867;28;20230;-77
2021/06/14 04:14:05;;;;;;;7.93;1.90;;;;;;;18.24;42.82;95835.09;6876189;28;20213;-76
2021/06/14 04:17:28;;;;;;;2.53;1.57;;;;;;;18.34;42.45;95827.69;6922405;28;20214;-76
2021/06/14 04:20:48;;;;;;;1.37;1.27;;;;;;;18.44;42.31;95830.22;6907885;28;20677;-77
2021/06/14 04:24:09;;;;;;;2.73;1.77;;;;;;;18.55;42.33;95829.88;6887535;28;20771;-76
2021/06/14 04:27:30;;;;;;;3.97;1.50;;;;;;;18.66;42.04;95829.50;6890972;28;20948;-77
2021/06/14 04:30:52;;;;;;;2.30;1.53;;;;;;;18.77;41.91;95828.31;6890114;28;20229;-77
2021/06/14 04:34:15;;;;;;;4.70;1.73;;;;;;;18.85;41.92;95815.69;6907223;28;20218;-77
2021/06/14 04:37:35;;;;;;;2.67;1.60;;;;;;;18.96;41.91;95813.63;6866402;28;20233;-76
2021/06/14 04:40:56;;;;;;;4.83;1.90;;;;;;;19.06;41.78;95814.28;6906071;28;20218;-76
2021/06/14 04:44:17;;;;;;;4.17;1.57;;;;;;;19.14;41.46;95814.22;6907017;28;20239;-76
2021/06/14 04:47:37;;;;;;;5.50;1.50;;;;;;;19.25;41.32;95806.59;6917141;28;20297;-78
2021/06/14 04:50:58;;;;;;;4.50;1.80;;;;;;;19.36;41.32;95809.91;6904980;28;20597;-76
2021/06/14 04:54:18;;;;;;;4.60;1.93;;;;;;;19.47;41.02;95812.22;6905605;28;20215;-76
2021/06/14 04:57:39;;;;;;;3.10;1.60;;;;;;;19.53;40.97;95808.81;6908821;28;20224;-76
2021/06/14 05:01:00;;;;;;;2.53;1.33;;;;;;;19.62;40.64;95803.22;6891414;28;20235;-76
2021/06/14 05:04:23;;;;;;;5.80;2.07;;;;;;;19.72;40.65;95810.25;6909426;28;20650;-76
2021/06/14 05:07:43;;;;;;;4.03;1.70;;;;;;;19.81;40.78;95810.00;6892930;28;20219;-76
2021/06/14 05:11:04;;;;;;;2.00;1.50;;;;;;;19.91;40.48;95809.75;6921110;28;20264;-75
2021/06/14 05:14:24;;;;;;;2.43;1.63;;;;;;;19.99;40.50;95815.09;6883122;28;20826;-77
2021/06/14 05:17:45;;;;;;;3.73;1.70;;;;;;;20.09;40.59;95812.97;6895040;28;20235;-76
2021/06/14 05:21:05;;;;;;;2.57;1.70;;;;;;;20.24;40.01;95810.31;6882960;28;20232;-75
2021/06/14 05:24:26;;;;;;;3.57;1.80;;;;;;;20.41;39.84;95815.44;6912952;28;20231;-76
2021/06/14 05:27:46;;;;;;;14.03;11.43;;;;;;;20.52;39.29;95812.28;6903926;28;20220;-79
2021/06/14 05:31:09;;;;;;;2.80;1.60;;;;;;;20.59;38.87;95807.00;6901809;28;20227;-75
2021/06/14 05:34:30;;;;;;;5.10;1.50;;;;;;;20.66;39.16;95801.69;6874858;28;20224;-76
2021/06/14 05:37:50;;;;;;;7.93;2.00;;;;;;;20.69;39.32;95806.72;6899144;28;20351;-75
2021/06/14 05:41:13;;;;;;;3.57;1.60;;;;;;;20.75;38.62;95812.22;6901135;28;20230;-75
2021/06/14 05:44:36;;;;;;;3.70;1.90;;;;;;;20.81;38.50;95811.50;6918421;28;20238;-75
2021/06/14 05:47:56;;;;;;;5.60;3.10;;;;;;;20.92;38.38;95808.31;6903242;28;20228;-75
2021/06/14 05:51:17;;;;;;;4.23;2.70;;;;;;;21.00;38.07;95807.38;6911123;28;20252;-75
2021/06/14 05:54:37;;;;;;;2.83;1.93;;;;;;;21.09;37.60;95805.41;6890530;28;20229;-75
2021/06/14 05:57:58;;;;;;;3.67;2.23;;;;;;;21.21;38.09;95809.38;6900435;28;20263;-77
2021/06/14 06:01:18;;;;;;;2.80;2.10;;;;;;;21.29;37.66;95796.56;6879444;28;20224;-76
2021/06/14 06:04:42;;;;;;;3.07;2.00;;;;;;;21.36;37.42;95802.91;6898719;28;20225;-77
2021/06/14 06:08:02;;;;;;;5.27;1.87;;;;;;;21.42;36.69;95803.19;6912043;28;20220;-77
2021/06/14 06:11:23;;;;;;;4.10;2.20;;;;;;;21.44;36.96;95804.66;6922072;28;20283;-79
2021/06/14 06:14:43;;;;;;;2.83;2.17;;;;;;;21.46;37.03;95799.91;6913046;28;20221;-78
2021/06/14 06:18:04;;;;;;;5.27;2.27;;;;;;;21.48;36.93;95803.25;6902934;28;20911;-78
2021/06/14 06:21:24;;;;;;;2.70;1.97;;;;;;;21.48;37.40;95797.03;6914528;28;20672;-80
2021/06/14 06:24:47;;;;;;;4.80;1.77;;;;;;;21.53;37.53;95797.28;6922141;28;20723;-79
2021/06/14 06:28:10;;;;;;;4.47;2.10;;;;;;;21.59;37.03;95794.66;6916418;28;20259;-77
2021/06/14 06:31:31;;;;;;;2.60;1.70;;;;;;;21.62;37.00;95791.56;6918993;28;20220;-77
2021/06/14 06:34:51;;;;;;;3.33;2.00;;;;;;;21.69;37.31;95791.63;6915201;28;20212;-78
2021/06/14 06:38:12;;;;;;;5.27;2.93;;;;;;;21.77;37.36;95788.81;6926291;28;20220;-79
2021/06/14 06:41:32;;;;;;;3.47;1.40;;;;;;;21.83;37.34;95791.56;6934653;28;20228;-79
2021/06/14 06:44:55;;;;;;;5.23;1.90;;;;;;;21.92;37.85;95781.50;6918851;28;20220;-79
2021/06/14 06:48:18;;;;;;;3.03;1.90;;;;;;;22.03;37.68;95780.19;6904571;28;20213;-80
2021/06/14 06:51:38;;;;;;;7.03;1.87;;;;;;;22.09;37.51;95782.91;6910794;28;20240;-78
2021/06/14 06:54:59;;;;;;;25.50;19.67;;;;;;;22.17;37.26;95779.25;6910151;28;20416;-80
2021/06/14 06:58:22;;;;;;;3.97;2.13;;;;;;;22.21;37.42;95777.81;6919723;28;20221;-79
2021/06/14 07:01:44;;;;;;;7.07;2.30;;;;;;;22.28;37.68;95778.72;6895835;28;20208;-74
2021/06/14 07:05:06;;;;;;;2.80;1.80;;;;;;;22.36;37.89;95781.28;6884035;28;20245;-76
2021/06/14 07:08:26;;;;;;;3.10;1.60;;;;;;;22.43;37.60;95779.47;6897972;28;20221;-76
2021/06/14 07:11:51;;;;;;;3.37;1.60;;;;;;;22.56;38.01;95779.56;6880425;28;20274;-76
2021/06/14 07:15:14;;;;;;;5.17;2.10;;;;;;;22.67;37.52;95781.75;6914120;28;20647;-75
2021/06/14 07:18:34;;;;;;;2.60;1.80;;;;;;;22.79;37.08;95786.59;6919381;28;20228;-76
2021/06/14 07:21:58;;;;;;;3.63;1.77;;;;;;;22.88;36.71;95777.31;6883351;28;20216;-77
2021/06/14 07:25:18;;;;;;;2.50;1.70;;;;;;;22.93;36.69;95775.69;6902671;28;20218;-75
2021/06/14 07:28:39;;;;;;;3.97;1.80;;;;;;;23.00;36.61;95767.56;6910296;28;20251;-75
2021/06/14 07:32:01;;;;;;;3.77;1.80;;;;;;;23.05;36.55;95770.53;6892969;28;20750;-76
2021/06/14 07:35:24;;;;;;;3.90;1.90;;;;;;;23.11;36.60;95772.44;6886663;28;20224;-75
2021/06/14 07:38:45;;;;;;;2.50;1.80;;;;;;;23.18;36.66;95767.06;6910248;28;20300;-76
2021/06/14 07:42:05;;;;;;;5.53;2.27;;;;;;;23.26;36.73;95767.72;6899148;28;20217;-76
2021/06/14 07:45:26;;;;;;;2.20;1.90;;;;;;;23.36;36.75;95767.31;6871307;28;20220;-75
2021/06/14 07:48:46;;;;;;;3.37;1.90;;;;;;;23.41;36.46;95759.44;6897502;28;20245;-75
2021/06/14 07:52:07;;;;;;;5.63;2.53;;;;;;;23.46;36.66;95759.69;6876021;28;20256;-74
2021/06/14 07:55:30;;;;;;;7.10;2.23;;;;;;;23.60;36.27;95761.41;6891446;28;20680;-76
2021/06/14 07:58:53;;;;;;;5.70;2.00;;;;;;;23.71;36.88;95749.13;6902941;28;20221;-75
2021/06/14 08:02:16;;;;;;;6.37;1.83;;;;;;;23.82;36.00;95748.53;6881633;28;20771;-75
2021/06/14 08:05:37;;;;;;;2.87;2.27;;;;;;;23.91;35.96;95745.41;6896751;28;20643;-75
2021/06/14 08:08:58;;;;;;;3.47;2.10;;;;;;;24.01;35.82;95736.03;6896238;28;20223;-78
2021/06/14 08:12:18;;;;;;;5.03;2.10;;;;;;;24.16;35.71;95737.50;6888600;28;20224;-74
2021/06/14 08:15:39;;;;;;;3.43;2.33;;;;;;;24.39;35.53;95742.56;6887137;28;20215;-75
2021/06/14 08:19:05;;;;;;;3.20;2.10;;;;;;;24.68;35.21;95736.66;6882205;28;20364;-75
2021/06/14 08:25:55;;;;;;;3.60;2.22;;;;;;;25.52;33.85;95738.50;6891463;28;20598;-76
2021/06/14 08:29:16;;;;;;;3.50;2.38;;;;;;;26.04;33.21;95748.28;6913706;28;20718;-75
2021/06/14 08:32:39;;;;;;;5.47;2.00;;;;;;;26.51;33.11;95754.22;6880857;28;20225;-75
2021/06/14 08:36:00;;;;;;;6.05;1.98;;;;;;;26.98;32.34;95744.56;6901078;28;20216;-75
2021/06/14 08:39:20;;;;;;;6.00;2.35;;;;;;;27.37;31.32;95735.91;6919791;28;20225;-75
2021/06/14 08:42:43;;;;;;;4.63;2.13;;;;;;;27.86;30.26;95729.44;6868374;28;20216;-75
2021/06/14 08:46:04;;;;;;;8.23;2.47;;;;;;;28.41;30.27;95737.44;6913031;28;20243;-75
2021/06/14 08:49:25;;;;;;;5.28;2.35;;;;;;;28.99;29.38;95723.81;6883608;28;20228;-75
2021/06/14 08:52:47;;;;;;;2.85;1.98;;;;;;;29.74;28.17;95731.97;6892746;28;20724;-75
2021/06/14 08:56:08;;;;;;;3.90;1.73;;;;;;;30.61;27.02;95727.03;6868098;28;20249;-74
2021/06/14 08:59:31;;;;;;;4.05;2.30;;;;;;;31.04;26.19;95727.19;6886167;28;20592;-74
2021/06/14 09:02:52;;;;;;;2.85;2.05;;;;;;;31.24;26.15;95723.88;6881477;28;20235;-74
2021/06/14 09:06:15;;;;;;;3.22;2.10;;;;;;;32.07;25.17;95721.91;6903690;28;20705;-76
2021/06/14 09:09:35;;;;;;;3.10;1.90;;;;;;;33.16;24.13;95711.31;6902356;28;20367;-76
2021/06/14 09:13:16;;;;;;;2.67;2.00;;;;;;;33.97;23.60;95718.03;6909335;28;20220;-75
2021/06/14 09:16:38;;;;;;;3.17;2.38;;;;;;;34.82;22.60;95707.41;6905204;28;20217;-69
2021/06/14 09:20:00;;;;;;;2.67;2.13;;;;;;;35.38;21.80;95697.09;6908105;28;20756;-75
2021/06/14 09:23:20;;;;;;;4.43;2.10;;;;;;;36.06;20.71;95708.44;6893623;28;20217;-74
2021/06/14 09:26:47;;;;;;;2.80;2.38;;;;;;;36.79;20.24;95712.09;6905511;28;20209;-75
2021/06/14 09:30:33;;;;;;;5.57;2.22;;;;;;;37.55;19.27;95703.06;6901091;28;20242;-74
2021/06/14 09:33:57;;;;;;;4.80;2.40;;;;;;;38.26;18.87;95702.16;6889806;28;20220;-74
2021/06/14 09:37:17;;;;;;;2.28;2.08;;;;;;;39.01;18.35;95696.53;6900684;28;20223;-74
2021/06/14 09:40:45;;;;;;;3.42;2.10;;;;;;;39.78;18.17;95697.59;6895657;28;20208;-74
2021/06/14 09:44:05;;;;;;;4.90;2.10;;;;;;;40.48;17.06;95694.41;6919313;28;20232;-75
2021/06/14 09:47:29;;;;;;;4.30;1.90;;;;;;;41.06;17.16;95691.59;6894898;28;20286;-75
2021/06/14 09:50:53;;;;;;;2.50;2.13;;;;;;;41.67;16.19;95686.31;6914820;28;20217;-74
2021/06/14 09:54:26;;;;;;;3.63;2.30;;;;;;;42.02;15.30;95688.09;6902729;28;20291;-75
2021/06/14 09:57:46;;;;;;;3.92;1.83;;;;;;;42.22;15.23;95689.44;6916501;28;20213;-76
2021/06/14 10:01:09;;;;;;;3.22;1.98;;;;;;;42.58;15.11;95689.16;6916084;28;20221;-75
2021/06/14 10:04:31;;;;;;;2.47;2.20;;;;;;;42.69;14.84;95685.75;6891443;28;20230;-75
2021/06/14 10:07:57;;;;;;;4.20;1.98;;;;;;;42.63;14.94;95686.19;6914214;28;20290;-75
2021/06/14 10:11:20;;;;;;;4.72;2.20;;;;;;;42.68;15.07;95683.28;6903079;28;20800;-74
2021/06/14 10:14:48;;;;;;;4.70;2.20;;;;;;;42.79;15.08;95693.78;6907153;28;20262;-74
2021/06/14 10:18:10;;;;;;;2.90;2.28;;;;;;;42.33;15.05;95674.06;6909449;28;20692;-75
2021/06/14 10:21:32;;;;;;;3.95;2.20;;;;;;;41.46;15.01;95677.72;6906171;28;20308;-74
2021/06/14 10:24:53;;;;;;;4.20;2.13;;;;;;;40.17;15.75;95668.38;6915457;28;20696;-75
2021/06/14 10:28:14;;;;;;;2.97;1.92;;;;;;;38.83;16.91;95673.25;6900241;28;20236;-75
2021/06/14 10:31:36;;;;;;;4.68;2.30;;;;;;;37.79;18.08;95669.78;6898775;28;20217;-75
2021/06/14 10:34:56;;;;;;;3.25;2.22;;;;;;;36.53;19.23;95669.94;6930728;28;20300;-75
2021/06/14 10:38:17;;;;;;;3.38;2.00;;;;;;;35.39;19.88;95668.38;6908977;28;20224;-74
2021/06/14 10:41:37;;;;;;;4.35;1.90;;;;;;;34.60;21.35;95671.81;6891824;28;20279;-74
2021/06/14 10:44:58;;;;;;;3.78;2.20;;;;;;;34.01;21.89;95669.53;6878530;28;20327;-75
2021/06/14 10:48:24;;;;;;;3.95;1.92;;;;;;;33.35;22.66;95662.97;6877654;28;20221;-74
2021/06/14 10:51:45;;;;;;;3.70;2.08;;;;;;;32.93;23.09;95651.16;6904893;28;20213;-73
2021/06/14 10:55:10;;;;;;;5.30;2.13;;;;;;;32.48;23.67;95657.16;6911423;28;20230;-74
2021/06/14 10:58:33;;;;;;;4.78;2.25;;;;;;;32.16;24.64;95657.16;6923230;28;20217;-74
2021/06/14 11:02:04;;;;;;;4.50;2.47;;;;;;;31.71;24.24;95650.09;6898475;28;20726;-75
2021/06/14 11:05:31;;;;;;;5.85;2.42;;;;;;;31.31;25.22;95650.44;6896125;28;20217;-74
2021/06/14 11:08:56;;;;;;;3.08;2.50;;;;;;;31.07;25.63;95644.41;6899914;28;20739;-74
2021/06/14 11:12:29;;;;;;;3.42;2.33;;;;;;;30.88;26.03;95642.19;6882676;28;20715;-75
2021/06/14 11:15:53;;;;;;;3.67;2.35;;;;;;;30.69;26.22;95636.13;6913373;28;20287;-74
2021/06/14 11:19:13;;;;;;;3.78;2.35;;;;;;;30.59;26.90;95634.09;6880677;28;20221;-73
2021/06/14 11:22:41;;;;;;;3.85;2.17;;;;;;;30.46;26.81;95626.22;6886699;28;20251;-73
2021/06/14 11:26:02;;;;;;;3.75;2.05;;;;;;;30.36;26.44;95636.16;6891036;28;20262;-74
2021/06/14 11:29:22;;;;;;;3.20;1.88;;;;;;;30.13;26.43;95623.47;6904499;28;20208;-73
2021/06/14 11:32:45;;;;;;;4.43;1.90;;;;;;;30.01;26.71;95620.81;6923674;28;20347;-75
2021/06/14 11:36:32;;;;;;;3.22;2.00;;;;;;;29.85;28.19;95614.22;6907666;28;20216;-75
2021/06/14 11:40:00;;;;;;;3.47;2.20;;;;;;;29.81;27.79;95617.69;6879558;28;20320;-74
2021/06/14 11:43:20;;;;;;;5.80;2.10;;;;;;;29.81;28.69;95618.53;6900585;28;20232;-74
2021/06/14 11:46:42;;;;;;;5.22;2.17;;;;;;;29.80;28.63;95607.81;6900473;28;20299;-74
2021/06/14 11:50:07;;;;;;;3.83;2.30;;;;;;;29.80;28.93;95610.56;6888080;28;20229;-74
2021/06/14 11:53:27;;;;;;;2.63;2.20;;;;;;;29.76;27.50;95606.66;6918386;28;20223;-74
2021/06/14 11:56:58;;;;;;;12.43;10.30;;;;;;;29.80;28.58;95603.19;6870231;28;20209;-74
2021/06/14 12:00:47;;;;;;;4.72;2.10;;;;;;;29.79;27.38;95596.03;6910584;28;20259;-74
2021/06/14 12:04:11;;;;;;;5.28;2.53;;;;;;;29.80;28.86;95605.06;6880463;28;20312;-74
2021/06/14 12:07:41;;;;;;;5.38;2.80;;;;;;;29.74;28.87;95595.94;6890717;28;20282;-74
2021/06/14 12:11:06;;;;;;;5.32;2.25;;;;;;;29.61;27.92;95587.22;6904516;28;20215;-74
2021/06/14 12:14:27;;;;;;;2.70;2.20;;;;;;;29.54;28.61;95581.91;6895920;28;20758;-75
2021/06/14 12:17:50;;;;;;;3.60;2.10;;;;;;;29.62;29.15;95577.94;6906155;28;20240;-73
2021/06/14 12:21:11;;;;;;;3.40;2.00;;;;;;;29.49;27.81;95578.22;6913687;28;20879;-75
2021/06/14 12:24:38;;;;;;;2.17;1.80;;;;;;;29.41;26.96;95571.28;6899454;28;20315;-74
2021/06/14 12:28:00;;;;;;;3.72;1.60;;;;;;;29.41;26.81;95572.09;6876018;28;20700;-74
2021/06/14 12:31:20;;;;;;;5.90;2.15;;;;;;;29.45;27.80;95571.59;6894836;28;20715;-74
2021/06/14 12:34:44;;;;;;;3.47;1.95;;;;;;;29.41;27.48;95569.38;6878026;28;20213;-75
2021/06/14 12:38:09;;;;;;;2.60;1.98;;;;;;;29.28;27.65;95569.63;6902556;28;20217;-75
2021/06/14 12:41:30;;;;;;;2.55;1.90;;;;;;;29.18;28.55;95574.06;6914909;28;20212;-74
2021/06/14 12:44:53;;;;;;;4.38;2.20;;;;;;;29.13;28.44;95580.25;6875285;28;20338;-75
2021/06/14 12:48:17;;;;;;;6.00;3.00;;;;;;;29.16;30.08;95578.97;6905551;28;20585;-74
2021/06/14 12:51:42;;;;;;;6.03;2.10;;;;;;;29.15;29.13;95575.41;6905286;28;21369;-74
2021/06/14 12:55:02;;;;;;;4.07;2.05;;;;;;;29.11;29.75;95573.41;6903009;28;20215;-75
2021/06/14 12:58:25;;;;;;;3.22;1.92;;;;;;;29.17;29.57;95572.44;6875201;28;20216;-74
2021/06/14 13:01:48;;;;;;;3.72;1.88;;;;;;;29.23;29.47;95577.72;6878414;28;20620;-74
2021/06/14 13:05:13;;;;;;;2.72;1.77;;;;;;;29.27;28.23;95578.94;6908962;28;20247;-74
2021/06/14 13:08:44;;;;;;;4.25;1.95;;;;;;;29.30;28.51;95578.44;6886843;28;20217;-74
2021/06/14 13:12:05;;;;;;;6.40;2.00;;;;;;;29.35;28.90;95569.50;6901342;28;20219;-74
2021/06/14 13:15:34;;;;;;;6.07;1.80;;;;;;;29.25;27.76;95580.22;6912937;28;20216;-74
2021/06/14 13:19:01;;;;;;;4.78;2.20;;;;;;;29.12;28.28;95575.06;6907637;28;20231;-74
2021/06/14 13:22:22;;;;;;;4.05;2.38;;;;;;;29.08;29.37;95569.22;6909783;28;20213;-73
2021/06/14 13:25:45;;;;;;;5.85;2.30;;;;;;;29.11;30.36;95566.03;6898314;28;20275;-74
2021/06/14 13:29:25;;;;;;;4.03;2.20;;;;;;;29.16;30.42;95563.38;6893799;28;20213;-74
2021/06/14 13:32:51;;;;;;;5.82;2.30;;;;;;;29.16;29.67;95560.66;6883698;28;20220;-74
2021/06/14 13:36:14;;;;;;;6.38;2.42;;;;;;;29.12;29.45;95555.91;6905799;28;20295;-74
2021/06/14 13:39:37;;;;;;;3.10;2.20;;;;;;;29.11;29.91;95565.19;6872789;28;20220;-74
2021/06/14 13:42:59;;;;;;;3.63;1.90;;;;;;;29.08;29.61;95560.19;6905843;28;20575;-74
2021/06/14 13:46:20;;;;;;;5.13;2.22;;;;;;;29.10;30.02;95563.53;6908898;28;20219;-75
2021/06/14 13:49:42;;;;;;;3.17;1.92;;;;;;;29.12;29.75;95562.22;6887840;28;20245;-74
2021/06/14 13:53:22;;;;;;;5.32;2.08;;;;;;;29.14;30.89;95560.06;6900761;28;20204;-74
2021/06/14 13:56:43;;;;;;;5.00;2.13;;;;;;;29.14;29.79;95551.00;6913548;28;20727;-74
2021/06/14 14:00:14;;;;;;;6.90;2.30;;;;;;;29.14;29.30;95546.38;6903323;28;20213;-74
2021/06/14 14:03:37;;;;;;;3.97;2.00;;;;;;;29.14;29.31;95534.59;6899147;28;20240;-74
2021/06/14 14:07:01;;;;;;;3.58;1.83;;;;;;;29.16;30.44;95530.56;6872780;28;20232;-73
2021/06/14 14:10:25;;;;;;;2.30;1.75;;;;;;;29.14;28.67;95526.41;6881481;28;20271;-73
2021/06/14 14:14:05;;;;;;;2.67;1.95;;;;;;;29.06;28.29;95527.63;6900276;28;20213;-74
2021/06/14 14:17:26;;;;;;;13.57;3.38;;;;;;;29.04;29.67;95534.41;6905628;28;20310;-75
2021/06/14 14:20:46;;;;;;;4.93;2.35;;;;;;;29.08;29.73;95525.47;6910024;28;20233;-74
2021/06/14 14:24:09;;;;;;;7.85;1.80;;;;;;;29.10;29.35;95527.97;6883548;28;20217;-75
2021/06/14 14:27:33;;;;;;;6.00;2.45;;;;;;;29.11;28.22;95530.47;6872589;28;20204;-75
2021/06/14 14:30:56;;;;;;;3.88;1.83;;;;;;;29.13;28.63;95536.50;6887880;28;20224;-74
2021/06/14 14:34:21;;;;;;;5.88;2.08;;;;;;;29.14;29.81;95531.88;6925363;28;20220;-75
2021/06/14 14:37:54;;;;;;;6.78;1.92;;;;;;;29.13;28.81;95536.50;6906383;28;20583;-74
2021/06/14 14:41:16;;;;;;;2.85;1.75;;;;;;;29.12;29.64;95536.78;6915607;28;20216;-74
2021/06/14 14:44:40;;;;;;;5.47;2.00;;;;;;;29.11;28.39;95532.38;6883865;28;20245;-73
2021/06/14 14:48:02;;;;;;;4.28;1.70;;;;;;;29.06;27.70;95522.19;6892518;28;20599;-74
2021/06/14 14:51:25;;;;;;;2.47;1.77;;;;;;;29.02;27.66;95525.66;6909185;28;20220;-74
2021/06/14 14:54:55;;;;;;;2.72;1.60;;;;;;;28.95;28.17;95528.50;6869385;28;20661;-73
2021/06/14 14:58:16;;;;;;;6.68;2.10;;;;;;;28.90;28.26;95526.50;6882548;28;20311;-74
2021/06/14 15:01:39;;;;;;;8.20;2.00;;;;;;;28.90;28.96;95525.69;6883768;28;20216;-74
2021/06/14 15:05:00;;;;;;;3.80;2.05;;;;;;;28.88;29.49;95522.34;6901901;28;20217;-74
2021/06/14 15:08:20;;;;;;;4.43;1.92;;;;;;;28.86;29.50;95524.50;6916296;28;20303;-74
2021/06/14 15:11:43;;;;;;;4.47;2.05;;;;;;;28.86;29.70;95519.03;6878948;28;20210;-75
2021/06/14 15:15:09;;;;;;;8.13;3.80;;;;;;;28.86;29.67;95519.03;6861885;28;20634;-74
2021/06/14 15:18:31;;;;;;;4.57;2.40;;;;;;;28.88;30.08;95520.44;6876489;28;20244;-74
2021/06/14 15:21:52;;;;;;;4.13;2.00;;;;;;;28.86;29.72;95516.31;6889039;28;20226;-75
2021/06/14 15:25:19;;;;;;;3.85;1.67;;;;;;;28.82;29.58;95512.41;6894984;28;20245;-74
2021/06/14 15:28:42;;;;;;;4.60;1.98;;;;;;;28.72;29.01;95507.53;6899644;28;20236;-75
2021/06/14 15:32:03;;;;;;;6.38;2.30;;;;;;;28.69;29.36;95499.81;6912494;28;20209;-74
2021/06/14 15:35:25;;;;;;;6.70;2.17;;;;;;;28.61;29.58;95496.63;6899867;28;20209;-75
2021/06/14 15:38:45;;;;;;;2.80;1.75;;;;;;;28.55;30.18;95495.69;6880643;28;20355;-74
2021/06/14 15:42:11;;;;;;;5.30;2.10;;;;;;;28.53;30.41;95497.84;6882732;28;20212;-74
2021/06/14 15:45:34;;;;;;;3.25;2.20;;;;;;;28.47;29.82;95498.81;6899761;28;20713;-75
2021/06/14 15:49:00;;;;;;;2.17;1.95;;;;;;;28.41;29.57;95499.78;6902751;28;20222;-74
2021/06/14 15:52:22;;;;;;;5.10;1.80;;;;;;;28.32;30.18;95507.50;6892191;28;20220;-74
2021/06/14 15:55:44;;;;;;;4.78;2.20;;;;;;;28.33;31.29;95505.59;6907457;28;20207;-75
2021/06/14 15:59:07;;;;;;;3.28;1.90;;;;;;;28.30;31.36;95497.91;6858001;28;20239;-75
2021/06/14 16:02:28;;;;;;;4.18;2.58;;;;;;;28.29;30.35;95496.22;6881168;28;20224;-74
2021/06/14 16:05:49;;;;;;;4.97;1.85;;;;;;;28.28;30.58;95498.13;6877508;28;20299;-75